MAU289 FMMI-FIMP
Flight info
| Callsign | MAU289 |
|---|---|
| Flight time | 1h 26m |
| Altitude | 35000 |
| Route | PIPRI1E TE UA400 RASMA RASMA2E |
| Aircraft | A319/M-SDE3FGHIRWY/LB1 |
Departure
| Time | 2026-05-04 10:19 |
|---|---|
| Airport | Ivato International Airport (FMMI) |
Arrival
| Time | 2026-05-04 11:45 |
|---|---|
| Airport | Sir Seewoosagur Ramgoolam International Airport (FIMP) |
| Time | Latitude | Longitude | Altitude | Speed | Heading |
|---|---|---|---|---|---|
| 2026-05-04 10:02 | -18.79875 | 47.47635 | 4166 ft | 0 kts | 189° |
| 2026-05-04 10:09 | -18.79866 | 47.47637 | 4166 ft | 4 kts | 190° |
| 2026-05-04 10:09 | -18.79840 | 47.47644 | 4166 ft | 4 kts | 207° |
| 2026-05-04 10:09 | -18.79824 | 47.47659 | 4166 ft | 4 kts | 269° |
| 2026-05-04 10:09 | -18.79824 | 47.47665 | 4166 ft | 0 kts | 279° |
| 2026-05-04 10:12 | -18.79823 | 47.47657 | 4166 ft | 2 kts | 279° |
| 2026-05-04 10:12 | -18.79819 | 47.47636 | 4166 ft | 4 kts | 279° |
| 2026-05-04 10:12 | -18.79814 | 47.47601 | 4166 ft | 6 kts | 279° |
| 2026-05-04 10:12 | -18.79807 | 47.47552 | 4166 ft | 8 kts | 277° |
| 2026-05-04 10:13 | -18.79798 | 47.47490 | 4165 ft | 10 kts | 279° |
| 2026-05-04 10:13 | -18.79786 | 47.47414 | 4165 ft | 12 kts | 279° |
| 2026-05-04 10:13 | -18.79772 | 47.47324 | 4165 ft | 13 kts | 282° |
| 2026-05-04 10:13 | -18.79755 | 47.47234 | 4165 ft | 12 kts | 280° |
| 2026-05-04 10:14 | -18.79743 | 47.47148 | 4165 ft | 12 kts | 279° |
| 2026-05-04 10:14 | -18.79686 | 47.47129 | 4164 ft | 11 kts | 10° |
| 2026-05-04 10:16 | -18.79505 | 47.46645 | 4161 ft | 13 kts | 279° |
| 2026-05-04 10:16 | -18.79490 | 47.46543 | 4161 ft | 15 kts | 279° |
| 2026-05-04 10:16 | -18.79439 | 47.46488 | 4162 ft | 7 kts | 305° |
| 2026-05-04 10:16 | -18.79458 | 47.46442 | 4162 ft | 7 kts | 192° |
| 2026-05-04 10:17 | -18.79482 | 47.46488 | 4161 ft | 9 kts | 99° |
| 2026-05-04 10:17 | -18.79485 | 47.46510 | 4161 ft | 3 kts | 99° |
| 2026-05-04 10:19 | -18.80275 | 47.52056 | 5894 ft | 164 kts | 99° |
| 2026-05-04 10:19 | -18.80444 | 47.53265 | 6196 ft | 172 kts | 100° |
| 2026-05-04 10:19 | -18.80670 | 47.54613 | 6230 ft | 200 kts | 101° |
| 2026-05-04 10:19 | -18.80970 | 47.56133 | 6409 ft | 224 kts | 103° |
| 2026-05-04 10:20 | -18.81353 | 47.57842 | 6707 ft | 248 kts | 104° |
| 2026-05-04 10:20 | -18.81781 | 47.59700 | 7092 ft | 271 kts | 104° |
| 2026-05-04 10:20 | -18.82220 | 47.61640 | 7812 ft | 278 kts | 104° |
| 2026-05-04 10:20 | -18.82666 | 47.63643 | 8618 ft | 283 kts | 104° |
| 2026-05-04 10:21 | -18.83114 | 47.65678 | 9422 ft | 286 kts | 104° |
| 2026-05-04 10:21 | -18.83564 | 47.67737 | 10185 ft | 292 kts | 104° |
| 2026-05-04 10:21 | -18.84038 | 47.69902 | 10485 ft | 314 kts | 104° |
| 2026-05-04 10:21 | -18.84543 | 47.72213 | 10879 ft | 329 kts | 104° |
| 2026-05-04 10:22 | -18.85587 | 47.76993 | 12189 ft | 340 kts | 105° |
| 2026-05-04 10:22 | -18.86116 | 47.79434 | 12844 ft | 344 kts | 105° |
| 2026-05-04 10:22 | -18.86648 | 47.81905 | 13482 ft | 347 kts | 104° |
| 2026-05-04 10:23 | -18.87186 | 47.84405 | 14106 ft | 351 kts | 104° |
| 2026-05-04 10:23 | -18.87729 | 47.86929 | 14736 ft | 354 kts | 104° |
| 2026-05-04 10:25 | -18.91621 | 48.05288 | 18699 ft | 378 kts | 104° |
| 2026-05-04 10:25 | -18.92191 | 48.08009 | 19230 ft | 381 kts | 104° |
| 2026-05-04 10:25 | -18.92768 | 48.10759 | 19750 ft | 385 kts | 104° |
| 2026-05-04 10:25 | -18.93348 | 48.13528 | 20257 ft | 388 kts | 104° |
| 2026-05-04 10:26 | -18.93931 | 48.16306 | 20723 ft | 390 kts | 104° |
| 2026-05-04 10:26 | -18.94520 | 48.19123 | 21141 ft | 394 kts | 104° |
| 2026-05-04 10:26 | -18.95108 | 48.21958 | 21637 ft | 397 kts | 104° |
| 2026-05-04 10:26 | -18.95684 | 48.24825 | 22108 ft | 400 kts | 103° |
| 2026-05-04 10:27 | -18.96225 | 48.27719 | 22577 ft | 404 kts | 102° |
| 2026-05-04 10:27 | -18.96751 | 48.30648 | 23047 ft | 407 kts | 102° |
| 2026-05-04 10:27 | -18.97273 | 48.33598 | 23499 ft | 410 kts | 102° |
| 2026-05-04 10:27 | -18.97800 | 48.36570 | 23939 ft | 413 kts | 102° |
| 2026-05-04 10:28 | -18.98334 | 48.39562 | 24365 ft | 416 kts | 102° |
| 2026-05-04 10:28 | -18.98878 | 48.42572 | 24798 ft | 419 kts | 102° |
| 2026-05-04 10:28 | -18.99428 | 48.45604 | 25176 ft | 422 kts | 102° |
| 2026-05-04 10:28 | -18.99984 | 48.48661 | 25549 ft | 425 kts | 102° |
| 2026-05-04 10:29 | -19.00545 | 48.51737 | 25910 ft | 429 kts | 102° |
| 2026-05-04 10:29 | -19.01112 | 48.54840 | 26274 ft | 432 kts | 102° |
| 2026-05-04 10:29 | -19.01680 | 48.57970 | 26630 ft | 435 kts | 102° |
| 2026-05-04 10:29 | -19.02250 | 48.61117 | 26979 ft | 438 kts | 102° |
| 2026-05-04 10:30 | -19.02823 | 48.64285 | 27316 ft | 440 kts | 102° |
| 2026-05-04 10:30 | -19.03398 | 48.67473 | 27636 ft | 443 kts | 102° |
| 2026-05-04 10:30 | -19.03978 | 48.70682 | 27948 ft | 446 kts | 102° |
| 2026-05-04 10:30 | -19.04564 | 48.73916 | 28278 ft | 449 kts | 102° |
| 2026-05-04 10:31 | -19.05150 | 48.77160 | 28592 ft | 452 kts | 102° |
| 2026-05-04 10:31 | -19.05733 | 48.80389 | 28900 ft | 454 kts | 102° |
| 2026-05-04 10:32 | -19.09309 | 49.00382 | 30669 ft | 470 kts | 102° |
| 2026-05-04 10:33 | -19.09923 | 49.03780 | 30924 ft | 472 kts | 102° |
| 2026-05-04 10:33 | -19.10539 | 49.07202 | 31174 ft | 475 kts | 102° |
| 2026-05-04 10:33 | -19.11153 | 49.10638 | 31428 ft | 477 kts | 102° |
| 2026-05-04 10:33 | -19.11770 | 49.14098 | 31678 ft | 479 kts | 102° |
| 2026-05-04 10:34 | -19.12385 | 49.17559 | 31991 ft | 480 kts | 102° |
| 2026-05-04 10:34 | -19.13000 | 49.21031 | 32336 ft | 480 kts | 102° |
| 2026-05-04 10:34 | -19.13609 | 49.24498 | 32678 ft | 480 kts | 102° |
| 2026-05-04 10:34 | -19.14220 | 49.27963 | 33016 ft | 479 kts | 103° |
| 2026-05-04 10:35 | -19.14834 | 49.31428 | 33342 ft | 480 kts | 103° |
| 2026-05-04 10:35 | -19.15449 | 49.34894 | 33667 ft | 479 kts | 103° |
| 2026-05-04 10:35 | -19.16065 | 49.38356 | 33985 ft | 479 kts | 103° |
| 2026-05-04 10:35 | -19.16679 | 49.41825 | 34271 ft | 480 kts | 103° |
| 2026-05-04 10:36 | -19.17291 | 49.45293 | 34564 ft | 480 kts | 103° |
| 2026-05-04 10:36 | -19.17900 | 49.48766 | 34868 ft | 480 kts | 103° |
| 2026-05-04 10:36 | -19.18506 | 49.52233 | 35046 ft | 480 kts | 103° |
| 2026-05-04 10:36 | -19.19106 | 49.55676 | 35077 ft | 473 kts | 103° |
| 2026-05-04 10:37 | -19.20293 | 49.62469 | 35084 ft | 468 kts | 103° |
| 2026-05-04 10:37 | -19.21478 | 49.69224 | 35084 ft | 467 kts | 103° |
| 2026-05-04 10:39 | -19.25597 | 49.92871 | 35084 ft | 467 kts | 103° |
| 2026-05-04 10:40 | -19.26764 | 49.99635 | 35082 ft | 467 kts | 103° |
| 2026-05-04 10:40 | -19.27930 | 50.06397 | 35075 ft | 467 kts | 103° |
| 2026-05-04 10:41 | -19.29095 | 50.13163 | 35072 ft | 467 kts | 103° |
| 2026-05-04 10:41 | -19.30267 | 50.19934 | 35066 ft | 468 kts | 103° |
| 2026-05-04 10:42 | -19.31433 | 50.26710 | 35069 ft | 468 kts | 103° |
| 2026-05-04 10:42 | -19.32589 | 50.33489 | 35072 ft | 468 kts | 103° |
| 2026-05-04 10:43 | -19.33743 | 50.40275 | 35074 ft | 468 kts | 103° |
| 2026-05-04 10:45 | -19.38344 | 50.67408 | 35072 ft | 468 kts | 103° |
| 2026-05-04 10:45 | -19.39491 | 50.74195 | 35073 ft | 468 kts | 103° |
| 2026-05-04 10:46 | -19.40630 | 50.80982 | 35065 ft | 468 kts | 103° |
| 2026-05-04 10:46 | -19.41771 | 50.87781 | 35068 ft | 469 kts | 103° |
| 2026-05-04 10:47 | -19.42914 | 50.94581 | 35070 ft | 469 kts | 103° |
| 2026-05-04 10:47 | -19.44045 | 51.01383 | 35066 ft | 469 kts | 103° |
| 2026-05-04 10:49 | -19.48585 | 51.28640 | 35069 ft | 470 kts | 103° |
| 2026-05-04 10:50 | -19.49716 | 51.35468 | 35066 ft | 471 kts | 102° |
| 2026-05-04 10:52 | -19.54197 | 51.62843 | 35068 ft | 472 kts | 102° |
| 2026-05-04 10:52 | -19.55305 | 51.69653 | 35068 ft | 472 kts | 102° |
| 2026-05-04 10:54 | -19.59765 | 51.97132 | 35060 ft | 473 kts | 102° |
| 2026-05-04 10:56 | -19.64166 | 52.24640 | 35065 ft | 473 kts | 102° |
| 2026-05-04 10:57 | -19.65264 | 52.31514 | 35063 ft | 473 kts | 102° |
| 2026-05-04 10:57 | -19.66362 | 52.38392 | 35064 ft | 473 kts | 102° |
| 2026-05-04 10:58 | -19.67455 | 52.45268 | 35063 ft | 473 kts | 102° |
| 2026-05-04 10:58 | -19.68544 | 52.52152 | 35067 ft | 473 kts | 102° |
| 2026-05-04 10:59 | -19.69623 | 52.59023 | 35066 ft | 473 kts | 102° |
| 2026-05-04 10:59 | -19.70713 | 52.65899 | 35066 ft | 473 kts | 102° |
| 2026-05-04 11:00 | -19.71801 | 52.72795 | 35063 ft | 473 kts | 102° |
| 2026-05-04 11:02 | -19.75912 | 52.99184 | 35060 ft | 473 kts | 102° |
| 2026-05-04 11:05 | -19.83877 | 53.50972 | 35049 ft | 475 kts | 102° |
| 2026-05-04 11:06 | -19.84943 | 53.57898 | 35048 ft | 475 kts | 102° |
| 2026-05-04 11:06 | -19.85992 | 53.64829 | 35048 ft | 476 kts | 102° |
| 2026-05-04 11:10 | -19.93280 | 54.13478 | 35051 ft | 477 kts | 102° |
| 2026-05-04 11:12 | -19.97391 | 54.41272 | 35059 ft | 476 kts | 101° |
| 2026-05-04 11:12 | -19.98415 | 54.48226 | 35059 ft | 476 kts | 101° |
| 2026-05-04 11:13 | -19.99427 | 54.55182 | 35055 ft | 476 kts | 101° |
| 2026-05-04 11:13 | -20.00432 | 54.62123 | 35054 ft | 476 kts | 101° |
| 2026-05-04 11:14 | -20.01442 | 54.69071 | 35058 ft | 475 kts | 101° |
| 2026-05-04 11:16 | -20.05427 | 54.96668 | 35060 ft | 472 kts | 101° |
| 2026-05-04 11:16 | -20.06417 | 55.03574 | 35058 ft | 472 kts | 101° |
| 2026-05-04 11:17 | -20.07406 | 55.10470 | 35055 ft | 472 kts | 101° |
| 2026-05-04 11:19 | -20.11336 | 55.38075 | 35041 ft | 472 kts | 101° |
| 2026-05-04 11:19 | -20.12304 | 55.44988 | 35040 ft | 472 kts | 101° |
| 2026-05-04 11:20 | -20.13273 | 55.51923 | 35059 ft | 479 kts | 101° |
| 2026-05-04 11:20 | -20.13763 | 55.55448 | 34821 ft | 486 kts | 101° |
| 2026-05-04 11:20 | -20.14238 | 55.58979 | 33840 ft | 490 kts | 100° |
| 2026-05-04 11:22 | -20.17330 | 55.82803 | 30075 ft | 438 kts | 99° |
| 2026-05-04 11:22 | -20.17749 | 55.85991 | 29591 ft | 431 kts | 99° |
| 2026-05-04 11:23 | -20.18158 | 55.89122 | 29120 ft | 423 kts | 99° |
| 2026-05-04 11:23 | -20.18557 | 55.92200 | 28665 ft | 416 kts | 99° |
| 2026-05-04 11:24 | -20.20016 | 56.09927 | 26134 ft | 392 kts | 92° |
| 2026-05-04 11:25 | -20.20021 | 56.12791 | 25704 ft | 389 kts | 92° |
| 2026-05-04 11:25 | -20.20027 | 56.15662 | 25266 ft | 386 kts | 92° |
| 2026-05-04 11:25 | -20.20033 | 56.18507 | 24827 ft | 383 kts | 92° |
| 2026-05-04 11:26 | -20.20042 | 56.24134 | 23925 ft | 377 kts | 92° |
| 2026-05-04 11:27 | -20.20067 | 56.43262 | 20868 ft | 362 kts | 92° |
| 2026-05-04 11:28 | -20.20064 | 56.45933 | 20442 ft | 360 kts | 92° |
| 2026-05-04 11:28 | -20.20064 | 56.48591 | 20030 ft | 358 kts | 92° |
| 2026-05-04 11:28 | -20.20064 | 56.51231 | 19615 ft | 356 kts | 92° |
| 2026-05-04 11:28 | -20.20064 | 56.53863 | 19200 ft | 354 kts | 92° |
| 2026-05-04 11:29 | -20.20065 | 56.56477 | 18789 ft | 353 kts | 92° |
| 2026-05-04 11:29 | -20.20067 | 56.59086 | 18385 ft | 351 kts | 92° |
| 2026-05-04 11:29 | -20.20067 | 56.61680 | 17972 ft | 350 kts | 92° |
| 2026-05-04 11:29 | -20.20064 | 56.64263 | 17571 ft | 348 kts | 92° |
| 2026-05-04 11:31 | -20.20046 | 56.82122 | 14710 ft | 344 kts | 92° |
| 2026-05-04 11:33 | -20.20003 | 56.99453 | 11823 ft | 323 kts | 92° |
| 2026-05-04 11:33 | -20.19999 | 57.01827 | 11428 ft | 319 kts | 92° |
| 2026-05-04 11:33 | -20.19994 | 57.04174 | 11028 ft | 315 kts | 92° |
| 2026-05-04 11:34 | -20.19987 | 57.06491 | 10639 ft | 311 kts | 92° |
| 2026-05-04 11:34 | -20.19979 | 57.08774 | 10262 ft | 307 kts | 92° |
| 2026-05-04 11:34 | -20.19970 | 57.11031 | 9902 ft | 303 kts | 92° |
| 2026-05-04 11:34 | -20.19961 | 57.13250 | 9519 ft | 297 kts | 92° |
| 2026-05-04 11:35 | -20.19953 | 57.15429 | 9150 ft | 293 kts | 91° |
| 2026-05-04 11:35 | -20.19946 | 57.17585 | 8793 ft | 290 kts | 91° |
| 2026-05-04 11:35 | -20.19936 | 57.19724 | 8435 ft | 288 kts | 91° |
| 2026-05-04 11:35 | -20.19926 | 57.21844 | 8082 ft | 285 kts | 91° |
| 2026-05-04 11:36 | -20.19916 | 57.23946 | 7732 ft | 284 kts | 91° |
| 2026-05-04 11:36 | -20.19936 | 57.26038 | 7388 ft | 281 kts | 96° |
| 2026-05-04 11:36 | -20.20360 | 57.28046 | 7045 ft | 277 kts | 112° |
| 2026-05-04 11:36 | -20.21266 | 57.29839 | 6694 ft | 274 kts | 126° |
| 2026-05-04 11:37 | -20.22376 | 57.31486 | 6352 ft | 273 kts | 126° |
| 2026-05-04 11:37 | -20.23474 | 57.33129 | 6021 ft | 272 kts | 126° |
| 2026-05-04 11:37 | -20.24564 | 57.34768 | 5679 ft | 270 kts | 125° |
| 2026-05-04 11:37 | -20.25641 | 57.36395 | 5417 ft | 263 kts | 125° |
| 2026-05-04 11:38 | -20.26664 | 57.37943 | 5359 ft | 248 kts | 125° |
| 2026-05-04 11:38 | -20.27627 | 57.39401 | 5273 ft | 233 kts | 126° |
| 2026-05-04 11:38 | -20.28538 | 57.40761 | 5184 ft | 221 kts | 126° |
| 2026-05-04 11:38 | -20.29400 | 57.42031 | 5086 ft | 211 kts | 126° |
| 2026-05-04 11:39 | -20.30240 | 57.43265 | 4987 ft | 201 kts | 126° |
| 2026-05-04 11:39 | -20.31050 | 57.44455 | 4915 ft | 197 kts | 126° |
| 2026-05-04 11:40 | -20.35132 | 57.51998 | 3816 ft | 198 kts | 118° |
| 2026-05-04 11:41 | -20.35764 | 57.53310 | 3510 ft | 201 kts | 117° |
| 2026-05-04 11:41 | -20.36396 | 57.54617 | 3245 ft | 200 kts | 117° |
| 2026-05-04 11:41 | -20.37031 | 57.55932 | 2900 ft | 197 kts | 117° |
| 2026-05-04 11:41 | -20.37642 | 57.57199 | 2588 ft | 189 kts | 118° |
| 2026-05-04 11:42 | -20.38229 | 57.58417 | 2304 ft | 180 kts | 118° |
| 2026-05-04 11:42 | -20.38787 | 57.59573 | 2033 ft | 171 kts | 118° |
| 2026-05-04 11:42 | -20.39301 | 57.60638 | 1790 ft | 156 kts | 117° |
| 2026-05-04 11:42 | -20.39773 | 57.61621 | 1533 ft | 143 kts | 117° |
| 2026-05-04 11:43 | -20.40217 | 57.62549 | 1323 ft | 139 kts | 117° |
| 2026-05-04 11:43 | -20.40652 | 57.63451 | 1110 ft | 136 kts | 118° |
| 2026-05-04 11:43 | -20.41083 | 57.64348 | 905 ft | 135 kts | 117° |
| 2026-05-04 11:43 | -20.41516 | 57.65239 | 700 ft | 135 kts | 118° |
| 2026-05-04 11:44 | -20.41946 | 57.66128 | 484 ft | 135 kts | 117° |
| 2026-05-04 11:44 | -20.42377 | 57.67017 | 276 ft | 134 kts | 117° |
| 2026-05-04 11:44 | -20.42793 | 57.67875 | 195 ft | 119 kts | 117° |
| 2026-05-04 11:44 | -20.43102 | 57.68516 | 179 ft | 73 kts | 117° |
| 2026-05-04 11:45 | -20.43277 | 57.68878 | 165 ft | 51 kts | 117° |
| 2026-05-04 11:45 | -20.43428 | 57.69192 | 146 ft | 35 kts | 117° |
| 2026-05-04 11:45 | -20.43520 | 57.69366 | 135 ft | 21 kts | 138° |
| 2026-05-04 11:45 | -20.43608 | 57.69342 | 139 ft | 11 kts | 208° |
| 2026-05-04 11:46 | -20.43645 | 57.69322 | 145 ft | 2 kts | 206° |
| 2026-05-04 11:46 | -20.43652 | 57.69318 | 146 ft | 3 kts | 206° |
| 2026-05-04 11:46 | -20.43661 | 57.69281 | 150 ft | 9 kts | 280° |
| 2026-05-04 11:46 | -20.43620 | 57.69190 | 157 ft | 19 kts | 298° |
| 2026-05-04 11:47 | -20.43557 | 57.69056 | 168 ft | 21 kts | 297° |
| 2026-05-04 11:47 | -20.43491 | 57.68923 | 172 ft | 20 kts | 298° |
| 2026-05-04 11:47 | -20.43428 | 57.68792 | 174 ft | 20 kts | 296° |
| 2026-05-04 11:47 | -20.43369 | 57.68665 | 176 ft | 19 kts | 296° |
| 2026-05-04 11:48 | -20.43311 | 57.68542 | 178 ft | 18 kts | 296° |
| 2026-05-04 11:48 | -20.43252 | 57.68422 | 180 ft | 18 kts | 297° |
| 2026-05-04 11:48 | -20.43197 | 57.68308 | 172 ft | 16 kts | 297° |
| 2026-05-04 11:48 | -20.43164 | 57.68240 | 186 ft | 15 kts | 297° |
| 2026-05-04 11:49 | -20.43123 | 57.68139 | 193 ft | 15 kts | 272° |
| 2026-05-04 11:49 | -20.43161 | 57.68058 | 186 ft | 13 kts | 279° |
| 2026-05-04 11:49 | -20.43120 | 57.67972 | 189 ft | 13 kts | 297° |
| 2026-05-04 11:49 | -20.43076 | 57.67880 | 199 ft | 14 kts | 297° |
| 2026-05-04 11:50 | -20.43029 | 57.67784 | 194 ft | 15 kts | 297° |
| 2026-05-04 11:50 | -20.42990 | 57.67694 | 198 ft | 9 kts | 275° |
| 2026-05-04 11:50 | -20.43036 | 57.67659 | 195 ft | 8 kts | 209° |
| 2026-05-04 11:50 | -20.43066 | 57.67643 | 193 ft | 3 kts | 207° |
| 2026-05-04 11:51 | -20.43071 | 57.67640 | 186 ft | 1 kts | 207° |
| 2026-05-04 11:51 | -20.43075 | 57.67638 | 194 ft | 0 kts | 207° |